Spring Ranch, Nebraska
Current Conditions -  °F | °C
As of 3:53 AM on Sunday 23 Nov 2014 (Local Time) from KHSI Reporting Station
Clear Clear  
Wind Chill: 50°   Ceiling: Unl
Heat Index: 50°   Visibility: 10mi
Dew Point: 46°   Wind: 5mph
Humidity: 86%   Direction: 190°S
Pressure: 29.43"   Gusts: NA
Location:  40.387°N, 98.1945°W
Report Text: KHSI 230953Z AUTO 19004KT 10SM CLR 10/08 A2943 RMK AO2 SLP965 T01000078
Loading
Personal Weather Stations






























Interactive Weather Map New forecast layout! Learn more

10-Day Weather Forecast

Advertisements
Track Severe Weather on mobile